createdAt,value
2018-10-05T04:00:57.871Z,99.99
2018-10-05T04:01:57.747Z,99.99
2018-10-05T04:03:50.416Z,99.99
2018-10-05T04:04:50.304Z,99.99
2018-10-05T04:06:42.987Z,99.99
2018-10-05T04:07:42.863Z,99.99
2018-10-05T04:09:35.529Z,99.99
2018-10-05T04:10:35.424Z,99.99
2018-10-05T04:12:28.105Z,99.99
2018-10-05T04:13:27.983Z,99.99
2018-10-05T04:15:20.664Z,99.99
2018-10-05T04:16:20.534Z,99.99
2018-10-05T04:18:13.203Z,99.99
2018-10-05T04:19:13.145Z,99.99
2018-10-05T04:21:05.785Z,99.99
2018-10-05T04:22:05.655Z,99.99
2018-10-05T04:23:58.320Z,99.99
2018-10-05T04:24:58.215Z,99.99
2018-10-05T04:26:50.891Z,99.99
2018-10-05T04:27:50.766Z,99.99
2018-10-05T04:29:43.437Z,99.99
2018-10-05T04:30:43.324Z,99.99
2018-10-05T04:32:36.014Z,99.99
2018-10-05T04:33:35.884Z,99.99
2018-10-05T04:35:28.565Z,99.99
2018-10-05T04:36:28.442Z,99.99
2018-10-05T04:38:21.127Z,99.99
2018-10-05T04:39:21.002Z,99.99
2018-10-05T04:41:13.711Z,99.99
2018-10-05T04:42:13.553Z,99.99
2018-10-05T04:44:06.237Z,99.99
2018-10-05T04:45:06.114Z,99.99
2018-10-05T04:46:58.800Z,99.99
2018-10-05T04:47:58.691Z,99.99
2018-10-05T04:49:51.841Z,99.99
2018-10-05T04:50:51.725Z,99.99
2018-10-05T04:52:44.409Z,99.99
2018-10-05T04:53:44.284Z,99.99
2018-10-05T04:55:36.990Z,99.99
2018-10-05T04:56:36.852Z,99.99
2018-10-05T04:58:29.557Z,99.99
2018-10-05T04:59:29.435Z,99.99
2018-10-05T05:01:22.118Z,99.99
2018-10-05T05:02:21.998Z,99.99
2018-10-05T05:04:14.661Z,99.99
2018-10-05T05:05:14.550Z,99.99
2018-10-05T05:07:07.252Z,99.99
2018-10-05T05:08:07.116Z,99.99
2018-10-05T05:09:59.792Z,99.99
2018-10-05T05:10:59.673Z,99.99
2018-10-05T05:12:52.361Z,99.99
2018-10-05T05:13:52.237Z,99.99
2018-10-05T05:15:45.944Z,99.99
2018-10-05T05:16:45.790Z,99.99
2018-10-05T05:18:38.449Z,99.99
2018-10-05T05:19:38.468Z,99.99
2018-10-05T05:21:31.026Z,99.99
2018-10-05T05:22:30.902Z,99.99
2018-10-05T05:24:23.563Z,99.99
2018-10-05T05:25:23.474Z,99.99
2018-10-05T05:27:16.135Z,99.99
2018-10-05T05:28:16.011Z,99.99
2018-10-05T05:30:08.679Z,99.99
2018-10-05T05:31:08.572Z,99.99
2018-10-05T05:33:01.261Z,99.99
2018-10-05T05:34:01.208Z,99.99
2018-10-05T05:35:53.811Z,99.99
2018-10-05T05:36:53.689Z,99.99
2018-10-05T05:38:46.355Z,99.99
2018-10-05T05:39:46.244Z,99.99
2018-10-05T05:41:38.933Z,99.99
2018-10-05T05:42:38.805Z,99.99
2018-10-05T05:44:31.471Z,99.99
2018-10-05T05:45:31.366Z,99.99
2018-10-05T05:47:24.053Z,99.99
2018-10-05T05:48:23.921Z,99.99
2018-10-05T05:50:16.741Z,99.99
2018-10-05T05:51:16.472Z,99.99
2018-10-05T05:53:09.156Z,99.99
2018-10-05T05:54:09.083Z,99.99
2018-10-05T05:56:01.725Z,99.99
2018-10-05T05:57:01.593Z,99.99
2018-10-05T05:58:54.262Z,99.99
2018-10-05T05:59:54.156Z,99.99
2018-10-05T06:01:46.840Z,99.99
2018-10-05T06:02:46.720Z,99.99
2018-10-05T06:04:39.386Z,99.99
2018-10-05T06:05:39.276Z,99.99
2018-10-05T06:07:31.964Z,99.99
2018-10-05T06:08:31.834Z,99.99
2018-10-05T06:10:24.504Z,99.99
2018-10-05T06:11:24.388Z,99.99
2018-10-05T06:13:17.065Z,99.99
2018-10-05T06:14:16.940Z,99.99
2018-10-05T06:16:09.733Z,99.99
2018-10-05T06:17:09.500Z,99.99
2018-10-05T06:19:02.167Z,99.99
2018-10-05T06:20:02.061Z,99.99
2018-10-05T06:21:54.906Z,99.99
2018-10-05T06:22:54.620Z,99.99
2018-10-05T06:24:47.289Z,99.99
2018-10-05T06:25:47.178Z,99.99
2018-10-05T06:27:39.870Z,99.99
2018-10-05T06:28:39.743Z,99.99
2018-10-05T06:30:32.462Z,99.99
2018-10-05T06:31:32.301Z,99.99
2018-10-05T06:33:24.999Z,99.99
2018-10-05T06:34:24.860Z,99.99
2018-10-05T06:36:17.553Z,99.99
2018-10-05T06:37:17.424Z,99.99
2018-10-05T06:39:10.151Z,99.99
2018-10-05T06:40:09.989Z,99.99
2018-10-05T06:42:02.725Z,99.99
2018-10-05T06:43:02.545Z,99.99
2018-10-05T06:44:55.218Z,99.99
2018-10-05T06:45:55.109Z,99.99
2018-10-05T06:47:47.811Z,99.99
2018-10-05T06:48:47.681Z,99.99
2018-10-05T06:50:40.350Z,99.99
2018-10-05T06:51:40.244Z,99.99
2018-10-05T06:53:32.930Z,99.99
2018-10-05T06:54:32.804Z,99.99
2018-10-05T06:56:25.494Z,99.99
2018-10-05T06:57:25.360Z,99.99
2018-10-05T06:59:18.033Z,99.99
2018-10-05T07:00:17.921Z,99.99
2018-10-05T07:02:10.610Z,99.99
2018-10-05T07:03:10.481Z,99.99
2018-10-05T07:05:03.149Z,99.99
2018-10-05T07:06:03.034Z,99.99
2018-10-05T07:07:55.798Z,99.99
2018-10-05T07:08:55.601Z,99.99
2018-10-05T07:10:48.310Z,99.99
2018-10-05T07:11:48.161Z,99.99
2018-10-05T07:13:40.843Z,99.99
2018-10-05T07:14:40.718Z,99.99
2018-10-05T07:16:33.409Z,99.99
2018-10-05T07:17:33.280Z,99.99
2018-10-05T07:19:25.957Z,99.99
2018-10-05T07:20:25.852Z,99.99
2018-10-05T07:22:18.585Z,99.99
2018-10-05T07:23:18.408Z,99.99
2018-10-05T07:25:11.077Z,99.99
2018-10-05T07:26:10.962Z,99.99
2018-10-05T07:28:03.665Z,99.13
2018-10-05T07:29:03.527Z,98.94
2018-10-05T07:30:56.197Z,98.85
2018-10-05T07:31:56.091Z,99.13
2018-10-05T07:33:48.789Z,98.18
2018-10-05T07:34:48.658Z,98.80
2018-10-05T07:36:41.334Z,98.13
2018-10-05T07:37:41.219Z,97.94
2018-10-05T07:39:33.885Z,97.46
2018-10-05T07:40:33.789Z,97.27
2018-10-05T07:42:26.465Z,96.61
2018-10-05T07:43:26.338Z,96.70
2018-10-05T07:45:19.012Z,96.03
2018-10-05T07:46:18.900Z,96.37
2018-10-05T07:48:12.086Z,95.70
2018-10-05T07:49:11.968Z,95.22
2018-10-05T07:51:04.653Z,95.51
2018-10-05T07:52:04.524Z,95.70
2018-10-05T07:53:57.210Z,94.74
2018-10-05T07:54:57.089Z,94.65
2018-10-05T07:56:50.269Z,94.51
2018-10-05T07:57:50.207Z,94.22
2018-10-05T07:59:42.826Z,93.55
2018-10-05T08:00:42.708Z,93.36
2018-10-05T08:02:35.396Z,92.88
2018-10-05T08:03:35.283Z,92.31
2018-10-05T08:05:27.942Z,93.21
2018-10-05T08:06:27.836Z,92.55
2018-10-05T08:08:20.521Z,91.78
2018-10-05T08:09:20.410Z,91.11
2018-10-05T08:11:13.099Z,90.92
2018-10-05T08:12:12.970Z,90.45
2018-10-05T08:14:05.674Z,90.25
2018-10-05T08:15:05.532Z,90.83
2018-10-05T08:16:58.224Z,89.30
2018-10-05T08:17:58.097Z,89.73
2018-10-05T08:19:50.768Z,89.15
2018-10-05T08:20:50.703Z,88.48
2018-10-05T08:22:43.355Z,88.68
2018-10-05T08:23:43.228Z,88.68
2018-10-05T08:25:35.899Z,88.39
2018-10-05T08:26:35.792Z,87.72
2018-10-05T08:28:28.488Z,87.38
2018-10-05T08:29:28.366Z,87.76
2018-10-05T08:31:21.047Z,87.09
2018-10-05T08:32:20.924Z,86.71
2018-10-05T08:34:13.761Z,87.38
2018-10-05T08:35:13.491Z,86.61
2018-10-05T08:37:06.181Z,87.09
2018-10-05T08:38:06.059Z,85.57
2018-10-05T08:39:58.753Z,84.84
2018-10-05T08:40:58.627Z,85.03
2018-10-05T08:42:51.312Z,84.75
2018-10-05T08:43:51.190Z,84.94
2018-10-05T08:45:43.869Z,84.84
2018-10-05T08:46:43.748Z,83.89
2018-10-05T08:48:36.443Z,83.31
2018-10-05T08:49:36.315Z,82.64
2018-10-05T08:51:29.046Z,83.36
2018-10-05T08:52:28.883Z,83.83
2018-10-05T08:54:21.556Z,82.68
2018-10-05T08:55:21.455Z,82.01
2018-10-05T08:57:14.144Z,81.05
2018-10-05T08:58:14.022Z,81.82
2018-10-05T09:00:07.289Z,80.77
2018-10-05T09:01:07.083Z,80.81
2018-10-05T09:02:59.774Z,81.57
2018-10-05T09:03:59.660Z,80.04
2018-10-05T09:05:52.402Z,80.90
2018-10-05T09:06:52.220Z,80.24
2018-10-05T09:08:44.917Z,79.47
2018-10-05T09:09:44.791Z,78.89
2018-10-05T09:11:37.487Z,79.08
2018-10-05T09:12:37.363Z,79.41
2018-10-05T09:14:30.041Z,79.03
2018-10-05T09:15:29.932Z,78.64
2018-10-05T09:17:22.621Z,78.07
2018-10-05T09:18:22.506Z,78.27
2018-10-05T09:20:15.179Z,77.31
2018-10-05T09:21:15.072Z,77.59
2018-10-05T09:23:07.759Z,77.31
2018-10-05T09:24:07.710Z,78.07
2018-10-05T09:26:00.316Z,77.21
2018-10-05T09:27:00.216Z,77.44
2018-10-05T09:28:52.900Z,76.06
2018-10-05T09:29:52.775Z,76.19
2018-10-05T09:31:45.484Z,75.23
2018-10-05T09:32:45.361Z,74.95
2018-10-05T09:34:38.048Z,75.71
2018-10-05T09:35:37.929Z,75.71
2018-10-05T09:37:30.743Z,74.57
2018-10-05T09:38:30.507Z,74.37
2018-10-05T09:40:23.180Z,74.08
2018-10-05T09:41:23.082Z,73.90
2018-10-05T09:43:16.617Z,72.88
2018-10-05T09:44:16.488Z,73.26
2018-10-05T09:46:09.168Z,73.07
2018-10-05T09:47:09.061Z,71.63
2018-10-05T09:49:01.756Z,72.78
2018-10-05T09:50:01.636Z,72.11
2018-10-05T09:51:54.350Z,72.20
2018-10-05T09:52:54.212Z,72.01
2018-10-05T09:54:46.888Z,72.11
2018-10-05T09:55:46.786Z,70.70
2018-10-05T09:57:39.476Z,71.37
2018-10-05T09:58:39.352Z,70.90
2018-10-05T10:00:32.034Z,70.32
2018-10-05T10:01:31.928Z,70.61
2018-10-05T10:03:24.637Z,70.13
2018-10-05T10:04:24.497Z,70.42
2018-10-05T10:06:17.672Z,69.26
2018-10-05T10:07:17.561Z,68.98
2018-10-05T10:09:10.258Z,68.30
2018-10-05T10:10:10.134Z,68.88
2018-10-05T10:12:03.313Z,68.88
2018-10-05T10:13:03.193Z,67.83
2018-10-05T10:14:55.873Z,67.29
2018-10-05T10:15:55.766Z,67.47
2018-10-05T10:17:48.471Z,67.00
2018-10-05T10:18:48.351Z,67.09
2018-10-05T10:20:41.522Z,67.96
2018-10-05T10:21:41.414Z,67.86
2018-10-05T10:23:34.106Z,67.00
2018-10-05T10:24:33.989Z,66.71
2018-10-05T10:26:26.674Z,66.52
2018-10-05T10:27:26.585Z,67.09
2018-10-05T10:29:19.391Z,66.71
2018-10-05T10:30:19.145Z,66.61
2018-10-05T10:32:11.845Z,66.61
2018-10-05T10:33:11.721Z,66.61
2018-10-05T10:35:04.408Z,65.88
2018-10-05T10:36:04.307Z,65.88
2018-10-05T10:37:56.998Z,65.97
2018-10-05T10:38:56.884Z,65.40
2018-10-05T10:40:49.563Z,65.69
2018-10-05T10:41:49.450Z,65.40
2018-10-05T10:43:42.152Z,65.97
2018-10-05T10:44:42.030Z,65.11
2018-10-05T10:46:34.704Z,64.25
2018-10-05T10:47:34.605Z,64.28
2018-10-05T10:49:27.306Z,64.66
2018-10-05T10:50:27.185Z,64.63
2018-10-05T10:52:19.875Z,64.47
2018-10-05T10:53:19.751Z,64.76
2018-10-05T10:55:12.476Z,64.47
2018-10-05T10:56:12.398Z,64.37
2018-10-05T10:58:05.029Z,64.37
2018-10-05T10:59:04.905Z,64.56
2018-10-05T11:00:57.589Z,63.99
2018-10-05T11:01:57.490Z,63.79
2018-10-05T11:03:50.185Z,62.55
2018-10-05T11:04:50.163Z,62.29
2018-10-05T11:06:42.763Z,62.68
2018-10-05T11:07:42.652Z,62.58
2018-10-05T11:09:35.351Z,62.77
2018-10-05T11:10:35.245Z,62.58
2018-10-05T11:12:27.921Z,63.54
2018-10-05T11:13:27.799Z,62.68
2018-10-05T11:15:20.496Z,62.29
2018-10-05T11:16:20.386Z,61.91
2018-10-05T11:18:13.115Z,61.81
2018-10-05T11:19:13.007Z,61.91
2018-10-05T11:21:05.691Z,62.00
2018-10-05T11:22:05.564Z,61.65
2018-10-05T11:23:59.275Z,61.74
2018-10-05T11:24:59.170Z,61.94
2018-10-05T11:26:51.850Z,61.84
2018-10-05T11:27:51.724Z,60.59
2018-10-05T11:29:44.476Z,61.36
2018-10-05T11:30:44.311Z,60.69
2018-10-05T11:32:37.107Z,59.92
2018-10-05T11:33:36.976Z,60.11
2018-10-05T11:35:29.684Z,60.01
2018-10-05T11:36:29.574Z,59.85
2018-10-05T11:38:22.275Z,59.17
2018-10-05T11:39:22.148Z,58.89
2018-10-05T11:41:14.848Z,59.85
2018-10-05T11:42:14.748Z,60.04
2018-10-05T11:44:07.432Z,59.75
2018-10-05T11:45:07.315Z,59.27
2018-10-05T11:47:00.000Z,59.47
2018-10-05T11:47:59.895Z,59.27
2018-10-05T11:49:53.101Z,58.22
2018-10-05T11:50:52.970Z,58.31
2018-10-05T11:52:45.672Z,60.17
2018-10-05T11:53:45.656Z,58.22
2018-10-05T11:55:38.234Z,57.92
2018-10-05T11:56:38.171Z,57.28
2018-10-05T11:58:30.833Z,57.47
2018-10-05T11:59:30.724Z,57.57
2018-10-05T12:01:23.422Z,57.95
2018-10-05T12:02:23.338Z,57.86
2018-10-05T12:04:16.042Z,57.95
2018-10-05T12:05:15.921Z,57.86
2018-10-05T12:07:08.597Z,57.28
2018-10-05T12:08:08.496Z,57.18
2018-10-05T12:10:01.170Z,56.60
2018-10-05T12:11:01.159Z,57.18
2018-10-05T12:12:54.265Z,57.67
2018-10-05T12:13:54.149Z,57.47
2018-10-05T12:15:46.837Z,56.51
2018-10-05T12:16:46.724Z,57.02
2018-10-05T12:18:39.415Z,56.99
2018-10-05T12:19:39.305Z,57.57
2018-10-05T12:21:31.990Z,57.31
2018-10-05T12:22:31.891Z,56.51
2018-10-05T12:24:24.592Z,56.54
2018-10-05T12:25:24.471Z,56.63
2018-10-05T12:27:17.177Z,56.54
2018-10-05T12:28:17.051Z,56.63
2018-10-05T12:30:09.797Z,56.54
2018-10-05T12:31:09.650Z,56.63
2018-10-05T12:33:02.348Z,56.25
2018-10-05T12:34:02.232Z,55.99
2018-10-05T12:35:54.921Z,55.99
2018-10-05T12:36:54.820Z,55.41
2018-10-05T12:38:47.519Z,54.64
2018-10-05T12:39:47.411Z,55.31
2018-10-05T12:41:40.086Z,55.60
2018-10-05T12:42:39.990Z,55.60
2018-10-05T12:44:32.693Z,54.74
2018-10-05T12:45:32.625Z,55.51
2018-10-05T12:47:25.284Z,55.31
2018-10-05T12:48:25.160Z,56.18
2018-10-05T12:50:17.849Z,55.70
2018-10-05T12:51:17.748Z,56.18
2018-10-05T12:53:10.444Z,55.02
2018-10-05T12:54:10.327Z,55.70
2018-10-05T12:56:03.011Z,55.12
2018-10-05T12:57:02.907Z,54.64
2018-10-05T12:58:55.610Z,55.02
2018-10-05T12:59:55.491Z,53.67
2018-10-05T13:01:48.176Z,54.54
2018-10-05T13:02:48.073Z,54.35
2018-10-05T13:04:40.802Z,54.06
2018-10-05T13:05:40.654Z,53.67
2018-10-05T13:07:33.357Z,54.18
2018-10-05T13:08:33.245Z,53.70
2018-10-05T13:10:25.925Z,53.70
2018-10-05T13:11:25.830Z,52.93
2018-10-05T13:13:18.528Z,53.70
2018-10-05T13:14:18.405Z,53.41
2018-10-05T13:16:11.098Z,53.99
2018-10-05T13:17:10.994Z,53.61
2018-10-05T13:19:03.692Z,53.41
2018-10-05T13:20:03.576Z,53.03
2018-10-05T13:21:56.773Z,53.03
2018-10-05T13:22:56.652Z,53.03
2018-10-05T13:24:49.374Z,53.61
2018-10-05T13:25:49.234Z,53.22
2018-10-05T13:27:41.944Z,53.41
2018-10-05T13:28:41.883Z,53.13
2018-10-05T13:30:34.498Z,52.25
2018-10-05T13:31:34.396Z,52.45
2018-10-05T13:33:27.093Z,52.28
2018-10-05T13:34:26.972Z,51.97
2018-10-05T13:36:19.661Z,52.28
2018-10-05T13:37:19.573Z,52.19
2018-10-05T13:39:12.261Z,52.47
2018-10-05T13:40:12.139Z,51.99
2018-10-05T13:42:04.914Z,52.47
2018-10-05T13:43:04.719Z,52.47
2018-10-05T13:44:57.424Z,52.09
2018-10-05T13:45:57.315Z,52.28
2018-10-05T13:47:50.011Z,52.28
2018-10-05T13:48:49.891Z,52.28
2018-10-05T13:50:42.647Z,52.28
2018-10-05T13:51:42.473Z,52.95
2018-10-05T13:53:35.179Z,53.05
2018-10-05T13:54:35.057Z,52.09
2018-10-05T13:56:27.746Z,52.37
2018-10-05T13:57:27.645Z,52.86
2018-10-05T13:59:20.340Z,52.28
2018-10-05T14:00:20.220Z,51.89
2018-10-05T14:02:13.034Z,52.09
2018-10-05T14:03:12.800Z,51.61
2018-10-05T14:05:05.501Z,52.09
2018-10-05T14:06:05.384Z,51.80
2018-10-05T14:07:58.079Z,52.95
2018-10-05T14:08:57.959Z,53.05
2018-10-05T14:10:50.644Z,53.05
2018-10-05T14:11:50.548Z,52.86
2018-10-05T14:13:43.244Z,52.28
2018-10-05T14:14:43.123Z,53.25
2018-10-05T14:16:35.808Z,53.05
2018-10-05T14:17:35.711Z,53.44
2018-10-05T14:19:28.905Z,52.95
2018-10-05T14:20:29.148Z,53.15
2018-10-05T14:22:21.464Z,52.09
2018-10-05T14:23:21.367Z,52.35
2018-10-05T14:25:14.063Z,52.16
2018-10-05T14:26:13.949Z,52.93
2018-10-05T14:28:06.645Z,53.13
2018-10-05T14:29:06.527Z,53.03
2018-10-05T14:30:59.213Z,53.25
2018-10-05T14:31:59.112Z,53.13
2018-10-05T14:33:51.949Z,52.64
2018-10-05T14:34:51.697Z,51.87
2018-10-05T14:36:44.386Z,51.97
2018-10-05T14:37:44.283Z,52.25
2018-10-05T14:39:36.988Z,51.77
2018-10-05T14:40:36.892Z,52.45
2018-10-05T14:42:29.575Z,52.64
2018-10-05T14:43:29.450Z,52.64
2018-10-05T14:45:22.140Z,53.03
2018-10-05T14:46:22.036Z,52.55
2018-10-05T14:48:15.231Z,52.16
2018-10-05T14:49:15.114Z,51.87
2018-10-05T14:51:07.796Z,52.06
2018-10-05T14:52:07.693Z,52.64
2018-10-05T14:54:00.403Z,53.00
2018-10-05T14:55:00.282Z,52.42
2018-10-05T14:56:53.022Z,52.13
2018-10-05T14:57:52.863Z,52.06
2018-10-05T14:59:45.563Z,52.04
2018-10-05T15:00:45.447Z,52.42
2018-10-05T15:02:38.174Z,51.36
2018-10-05T15:03:38.027Z,51.94
2018-10-05T15:05:30.715Z,51.39
2018-10-05T15:06:30.614Z,51.46
2018-10-05T15:08:23.315Z,51.56
2018-10-05T15:09:23.192Z,51.26
2018-10-05T15:11:15.877Z,51.94
2018-10-05T15:12:15.771Z,52.04
2018-10-05T15:14:08.478Z,50.88
2018-10-05T15:15:08.353Z,51.36
2018-10-05T15:17:01.032Z,50.59
2018-10-05T15:18:00.942Z,50.69
2018-10-05T15:19:53.638Z,50.78
2018-10-05T15:20:53.518Z,50.59
2018-10-05T15:22:46.216Z,51.46
2018-10-05T15:23:46.091Z,51.65
2018-10-05T15:25:38.823Z,51.94
2018-10-05T15:26:38.677Z,52.23
2018-10-05T15:28:31.412Z,52.04
2018-10-05T15:29:31.280Z,51.46
2018-10-05T15:31:24.480Z,51.75
2018-10-05T15:32:24.613Z,51.17
2018-10-05T15:34:17.075Z,51.26
2018-10-05T15:35:16.950Z,51.65
2018-10-05T15:37:11.545Z,52.04
2018-10-05T15:38:11.460Z,51.53
2018-10-05T15:40:04.195Z,52.01
2018-10-05T15:41:04.032Z,52.11
2018-10-05T15:42:56.798Z,51.92
2018-10-05T15:43:56.605Z,51.92
2018-10-05T15:45:49.309Z,52.87
2018-10-05T15:46:49.182Z,52.87
2018-10-05T15:48:41.892Z,53.17
2018-10-05T15:49:41.796Z,54.13
2018-10-05T15:51:34.461Z,54.52
2018-10-05T15:52:34.555Z,54.03
2018-10-05T15:54:27.055Z,54.49
2018-10-05T15:55:26.953Z,54.49
2018-10-05T15:57:20.113Z,54.68
2018-10-05T15:58:20.009Z,54.20
2018-10-05T16:00:12.715Z,54.39
2018-10-05T16:01:12.596Z,54.68
2018-10-05T16:03:05.294Z,56.32
2018-10-05T16:04:05.178Z,56.03
2018-10-05T16:05:57.894Z,57.28
2018-10-05T16:06:57.760Z,56.51
2018-10-05T16:08:50.458Z,56.99
2018-10-05T16:09:50.334Z,56.48
2018-10-05T16:11:43.041Z,58.22
2018-10-05T16:12:42.947Z,57.92
2018-10-05T16:14:35.713Z,58.89
2018-10-05T16:15:35.527Z,59.27
2018-10-05T16:17:28.200Z,59.94
2018-10-05T16:18:28.142Z,60.01
2018-10-05T16:20:20.797Z,59.53
2018-10-05T16:21:20.691Z,60.11
2018-10-05T16:23:13.402Z,59.82
2018-10-05T16:24:13.255Z,60.11
2018-10-05T16:26:05.935Z,60.59
2018-10-05T16:27:05.830Z,60.88
2018-10-05T16:28:59.019Z,62.00
2018-10-05T16:29:58.912Z,62.29
2018-10-05T16:31:51.593Z,62.87
2018-10-05T16:32:51.491Z,63.73
2018-10-05T16:34:44.674Z,63.15
2018-10-05T16:35:44.558Z,63.73
2018-10-05T16:37:37.225Z,63.99
2018-10-05T16:38:37.118Z,64.69
2018-10-05T16:40:30.466Z,64.95
2018-10-05T16:41:30.200Z,65.14
2018-10-05T16:43:22.920Z,65.62
2018-10-05T16:44:22.781Z,66.00
2018-10-05T16:46:15.462Z,65.97
2018-10-05T16:47:15.355Z,66.36
2018-10-05T16:49:08.071Z,66.74
2018-10-05T16:50:07.936Z,66.93
2018-10-05T16:52:00.625Z,67.22
2018-10-05T16:53:00.529Z,67.61
2018-10-05T16:54:53.219Z,67.76
2018-10-05T16:55:53.088Z,68.15
2018-10-05T16:57:45.761Z,69.49
2018-10-05T16:58:45.659Z,70.17
2018-10-05T17:00:38.380Z,70.64
2018-10-05T17:01:38.232Z,70.36
2018-10-05T17:03:30.933Z,71.57
2018-10-05T17:04:30.804Z,72.14
2018-10-05T17:06:23.485Z,72.72
2018-10-05T17:07:23.382Z,73.10
2018-10-05T17:09:16.075Z,73.30
2018-10-05T17:10:15.951Z,73.87
2018-10-05T17:12:08.628Z,74.12
2018-10-05T17:13:08.522Z,74.41
2018-10-05T17:15:01.229Z,74.79
2018-10-05T17:16:01.097Z,75.27
2018-10-05T17:17:53.774Z,75.46
2018-10-05T17:18:53.674Z,75.95
2018-10-05T17:20:46.362Z,76.62
2018-10-05T17:21:46.243Z,76.19
2018-10-05T17:23:39.002Z,76.96
2018-10-05T17:24:38.815Z,76.77
2018-10-05T17:26:31.496Z,77.53
2018-10-05T17:27:31.394Z,77.44
2018-10-05T17:29:24.220Z,78.02
2018-10-05T17:30:23.966Z,78.49
2018-10-05T17:32:16.638Z,78.74
2018-10-05T17:33:16.532Z,78.74
2018-10-05T17:35:09.782Z,79.22
2018-10-05T17:36:09.593Z,79.70
2018-10-05T17:38:02.822Z,79.22
2018-10-05T17:39:02.659Z,79.51
2018-10-05T17:40:55.349Z,80.37
2018-10-05T17:41:55.232Z,80.27
2018-10-05T17:43:47.925Z,80.18
2018-10-05T17:44:47.802Z,80.08
2018-10-05T17:46:40.487Z,80.18
2018-10-05T17:47:40.375Z,79.99
2018-10-05T17:49:33.065Z,80.56
2018-10-05T17:50:32.949Z,81.20
2018-10-05T17:52:25.618Z,82.24
2018-10-05T17:53:25.515Z,82.06
2018-10-05T17:55:18.264Z,80.81
2018-10-05T17:56:18.111Z,81.33
2018-10-05T17:58:10.792Z,81.77
2018-10-05T17:59:10.663Z,81.96
2018-10-05T18:01:03.346Z,82.15
2018-10-05T18:02:03.248Z,82.53
2018-10-05T18:03:55.947Z,82.63
2018-10-05T18:04:55.816Z,83.30
2018-10-05T18:06:48.492Z,82.53
2018-10-05T18:07:48.394Z,82.63
2018-10-05T18:09:41.072Z,82.92
2018-10-05T18:10:40.946Z,83.20
2018-10-05T18:12:33.629Z,83.20
2018-10-05T18:13:33.526Z,83.83
2018-10-05T18:15:26.218Z,83.54
2018-10-05T18:16:26.092Z,83.64
2018-10-05T18:18:18.788Z,83.93
2018-10-05T18:19:18.663Z,83.36
2018-10-05T18:21:11.342Z,84.02
2018-10-05T18:22:11.233Z,84.12
2018-10-05T18:24:03.929Z,85.08
2018-10-05T18:25:03.806Z,84.98
2018-10-05T18:26:56.490Z,84.98
2018-10-05T18:27:56.384Z,85.84
2018-10-05T18:29:49.075Z,86.04
2018-10-05T18:30:48.953Z,86.08
2018-10-05T18:32:42.149Z,86.28
2018-10-05T18:33:42.043Z,85.99
2018-10-05T18:35:34.729Z,86.28
2018-10-05T18:36:34.606Z,85.99
2018-10-05T18:38:27.300Z,85.99
2018-10-05T18:39:27.177Z,86.28
2018-10-05T18:41:19.919Z,86.28
2018-10-05T18:42:19.751Z,86.66
2018-10-05T18:44:12.508Z,86.85
2018-10-05T18:45:12.320Z,87.04
2018-10-05T18:47:04.994Z,87.14
2018-10-05T18:48:04.889Z,87.52
2018-10-05T18:49:57.584Z,87.81
2018-10-05T18:50:57.482Z,87.23
2018-10-05T18:52:50.637Z,88.19
2018-10-05T18:53:50.544Z,88.00
2018-10-05T18:55:43.225Z,88.38
2018-10-05T18:56:43.177Z,88.57
2018-10-05T18:58:35.815Z,88.86
2018-10-05T18:59:35.711Z,88.76
2018-10-05T19:01:28.880Z,88.48
2018-10-05T19:02:28.773Z,88.76
2018-10-05T19:04:21.495Z,88.72
2018-10-05T19:05:21.342Z,88.72
2018-10-05T19:07:14.239Z,88.53
2018-10-05T19:08:14.155Z,88.72
2018-10-05T19:10:06.764Z,88.81
2018-10-05T19:11:06.666Z,88.86
2018-10-05T19:12:59.429Z,89.67
2018-10-05T19:13:59.223Z,89.77
2018-10-05T19:15:52.408Z,89.77
2018-10-05T19:16:52.279Z,89.87
2018-10-05T19:18:44.978Z,89.77
2018-10-05T19:19:44.891Z,90.25
2018-10-05T19:21:37.558Z,89.96
2018-10-05T19:22:37.418Z,90.25
2018-10-05T19:24:30.620Z,89.96
2018-10-05T19:25:30.472Z,89.58
2018-10-05T19:27:23.155Z,89.96
2018-10-05T19:28:23.090Z,90.06
2018-10-05T19:30:15.741Z,90.16
2018-10-05T19:31:15.626Z,90.25
2018-10-05T19:33:08.291Z,90.25
2018-10-05T19:34:08.186Z,89.87
2018-10-05T19:36:00.922Z,90.63
2018-10-05T19:37:00.746Z,91.02
2018-10-05T19:38:53.440Z,90.73
2018-10-05T19:39:53.314Z,90.82
2018-10-05T19:41:45.998Z,90.63
2018-10-05T19:42:45.891Z,90.53
2018-10-05T19:44:39.078Z,90.82
2018-10-05T19:45:38.949Z,90.63
2018-10-05T19:47:31.633Z,90.44
2018-10-05T19:48:31.530Z,90.82
2018-10-05T19:50:24.226Z,91.02
2018-10-05T19:51:24.093Z,90.82
2018-10-05T19:53:16.890Z,90.68
2018-10-05T19:54:16.657Z,91.25
2018-10-05T19:56:09.349Z,91.68
2018-10-05T19:57:09.252Z,91.35
2018-10-05T19:59:01.954Z,91.54
2018-10-05T20:00:01.822Z,91.74
2018-10-05T20:01:54.521Z,91.64
2018-10-05T20:02:54.400Z,92.02
2018-10-05T20:04:47.077Z,92.21
2018-10-05T20:05:46.955Z,92.21
2018-10-05T20:07:39.623Z,91.83
2018-10-05T20:08:39.521Z,91.74
2018-10-05T20:10:32.213Z,91.25
2018-10-05T20:11:32.087Z,91.45
2018-10-05T20:13:24.783Z,90.88
2018-10-05T20:14:24.654Z,91.16
2018-10-05T20:16:17.328Z,90.78
2018-10-05T20:17:17.221Z,90.39
2018-10-05T20:19:09.911Z,90.68
2018-10-05T20:20:09.800Z,91.06
2018-10-05T20:22:02.460Z,91.35
2018-10-05T20:23:02.352Z,91.35
2018-10-05T20:24:55.041Z,92.11
2018-10-05T20:25:54.923Z,91.25
2018-10-05T20:27:48.090Z,90.97
2018-10-05T20:28:47.993Z,90.97
2018-10-05T20:30:40.673Z,90.88
2018-10-05T20:31:40.553Z,90.97
2018-10-05T20:33:33.832Z,91.25
2018-10-05T20:34:33.618Z,91.16
2018-10-05T20:36:26.415Z,91.64
2018-10-05T20:37:26.253Z,91.59
2018-10-05T20:39:18.879Z,91.78
2018-10-05T20:40:18.752Z,91.97
2018-10-05T20:42:11.428Z,91.88
2018-10-05T20:43:11.324Z,92.16
2018-10-05T20:45:04.018Z,91.88
2018-10-05T20:46:03.889Z,91.69
2018-10-05T20:47:56.561Z,91.40
2018-10-05T20:48:56.475Z,91.50
2018-10-05T20:50:49.144Z,91.40
2018-10-05T20:51:49.103Z,91.40
2018-10-05T20:53:41.706Z,91.50
2018-10-05T20:54:41.582Z,91.21
2018-10-05T20:56:34.256Z,91.88
2018-10-05T20:57:34.146Z,91.78
2018-10-05T20:59:26.841Z,92.26
2018-10-05T21:00:26.710Z,92.55
2018-10-05T21:02:19.387Z,92.55
2018-10-05T21:03:19.530Z,92.16
2018-10-05T21:05:11.966Z,92.93
2018-10-05T21:06:11.841Z,92.36
2018-10-05T21:08:04.529Z,92.45
2018-10-05T21:09:04.406Z,92.55
2018-10-05T21:10:57.094Z,92.45
2018-10-05T21:11:56.959Z,92.60
2018-10-05T21:13:49.763Z,92.69
2018-10-05T21:14:49.528Z,92.74
2018-10-05T21:16:42.199Z,92.36
2018-10-05T21:17:42.097Z,92.36
2018-10-05T21:19:34.785Z,92.55
2018-10-05T21:20:34.662Z,92.26
2018-10-05T21:22:27.338Z,92.69
2018-10-05T21:23:27.226Z,92.64
2018-10-05T21:25:19.921Z,92.55
2018-10-05T21:26:19.789Z,92.93
2018-10-05T21:28:12.457Z,92.74
2018-10-05T21:29:12.372Z,92.50
2018-10-05T21:31:05.040Z,92.55
2018-10-05T21:32:04.910Z,92.74
2018-10-05T21:33:57.604Z,92.69
2018-10-05T21:34:57.477Z,92.74
2018-10-05T21:36:50.152Z,92.97
2018-10-05T21:37:50.037Z,92.88
2018-10-05T21:39:42.734Z,92.97
2018-10-05T21:40:42.605Z,93.17
2018-10-05T21:42:35.281Z,92.88
2018-10-05T21:43:35.180Z,92.50
2018-10-05T21:45:28.357Z,93.55
2018-10-05T21:46:28.236Z,93.36
2018-10-05T21:48:20.906Z,93.55
2018-10-05T21:49:20.797Z,93.07
2018-10-05T21:51:14.038Z,92.69
2018-10-05T21:52:13.910Z,93.07
2018-10-05T21:54:07.102Z,92.88
2018-10-05T21:55:06.977Z,92.79
2018-10-05T21:56:59.642Z,92.69
2018-10-05T21:57:59.534Z,92.88
2018-10-05T21:59:52.223Z,92.88
